createdAt,value
2017-11-16T00:01:24.357Z,16.67
2017-11-16T00:03:51.870Z,18.53
2017-11-16T00:06:19.410Z,16.27
2017-11-16T00:08:46.917Z,17.00
2017-11-16T00:11:15.210Z,19.60
2017-11-16T00:13:42.766Z,18.97
2017-11-16T00:16:11.039Z,17.73
2017-11-16T00:18:38.564Z,20.60
2017-11-16T00:21:06.113Z,19.80
2017-11-16T00:23:33.621Z,19.03
2017-11-16T00:26:01.199Z,18.97
2017-11-16T00:28:28.713Z,22.47
2017-11-16T00:30:56.221Z,16.37
2017-11-16T00:33:23.768Z,24.10
2017-11-16T00:35:51.289Z,21.70
2017-11-16T00:38:18.793Z,26.33
2017-11-16T00:40:46.327Z,20.00
2017-11-16T00:43:13.848Z,21.67
2017-11-16T00:45:41.396Z,21.30
2017-11-16T00:48:08.919Z,17.47
2017-11-16T00:50:36.439Z,18.97
2017-11-16T00:53:03.979Z,19.63
2017-11-16T00:55:31.498Z,16.70
2017-11-16T00:57:59.005Z,12.07
2017-11-16T01:00:26.542Z,15.27
2017-11-16T01:02:54.053Z,17.27
2017-11-16T01:05:21.569Z,17.73
2017-11-16T01:07:49.104Z,10.13
2017-11-16T01:10:16.622Z,14.53
2017-11-16T01:12:44.125Z,17.83
2017-11-16T01:15:11.672Z,22.83
2017-11-16T01:17:39.180Z,13.27
2017-11-16T01:20:06.737Z,11.50
2017-11-16T01:22:34.244Z,15.70
2017-11-16T01:25:01.754Z,16.37
2017-11-16T01:27:29.310Z,20.33
2017-11-16T01:29:56.822Z,15.17
2017-11-16T01:32:25.109Z,17.33
2017-11-16T01:34:53.421Z,17.80
2017-11-16T01:37:20.952Z,13.53
2017-11-16T01:39:48.459Z,18.63
2017-11-16T01:42:15.992Z,21.43
2017-11-16T01:44:43.525Z,16.97
2017-11-16T01:47:11.029Z,18.90
2017-11-16T01:49:38.580Z,16.20
2017-11-16T01:52:06.117Z,16.70
2017-11-16T01:54:33.943Z,14.07
2017-11-16T01:57:01.504Z,13.40
2017-11-16T01:59:29.021Z,15.50
2017-11-16T02:01:56.529Z,25.30
2017-11-16T02:04:24.859Z,13.33
2017-11-16T02:06:52.379Z,12.57
2017-11-16T02:09:19.887Z,16.10
2017-11-16T02:11:48.194Z,16.90
2017-11-16T02:14:15.707Z,17.60
2017-11-16T02:16:43.253Z,17.47
2017-11-16T02:19:10.774Z,16.10
2017-11-16T02:21:38.282Z,16.57
2017-11-16T02:24:05.819Z,18.37
2017-11-16T02:26:34.115Z,17.33
2017-11-16T02:29:01.630Z,12.23
2017-11-16T02:31:29.168Z,19.27
2017-11-16T02:33:56.675Z,13.13
2017-11-16T02:36:24.951Z,15.00
2017-11-16T02:38:52.508Z,13.30
2017-11-16T02:41:20.805Z,15.97
2017-11-16T02:43:48.321Z,13.57
2017-11-16T02:46:15.994Z,13.57
2017-11-16T02:48:43.510Z,16.77
2017-11-16T02:51:11.051Z,16.50
2017-11-16T02:53:38.589Z,18.50
2017-11-16T02:56:06.117Z,14.53
2017-11-16T02:58:33.677Z,17.43
2017-11-16T03:01:01.185Z,19.17
2017-11-16T03:03:28.705Z,14.17
2017-11-16T03:05:56.247Z,18.77
2017-11-16T03:08:23.769Z,13.40
2017-11-16T03:10:51.295Z,16.57
2017-11-16T03:13:18.841Z,14.53
2017-11-16T03:15:46.352Z,14.33
2017-11-16T03:18:13.859Z,14.20
2017-11-16T03:20:41.405Z,16.73
2017-11-16T03:23:08.916Z,17.43
2017-11-16T03:25:36.454Z,14.90
2017-11-16T03:28:04.765Z,17.87
2017-11-16T03:30:32.284Z,15.30
2017-11-16T03:32:59.806Z,17.70
2017-11-16T03:35:27.358Z,16.70
2017-11-16T03:37:54.870Z,17.60
2017-11-16T03:40:23.141Z,16.33
2017-11-16T03:42:50.670Z,20.63
2017-11-16T03:45:18.187Z,20.07
2017-11-16T03:47:45.725Z,16.53
2017-11-16T03:50:13.226Z,15.57
2017-11-16T03:52:40.738Z,14.77
2017-11-16T03:55:08.265Z,20.37
2017-11-16T03:57:35.776Z,16.53
2017-11-16T04:00:04.085Z,15.07
2017-11-16T04:02:31.617Z,15.63
2017-11-16T04:04:59.889Z,16.17
2017-11-16T04:07:28.196Z,17.13
2017-11-16T04:09:55.712Z,18.63
2017-11-16T04:12:23.229Z,16.87
2017-11-16T04:14:50.772Z,20.23
2017-11-16T04:17:18.307Z,14.50
2017-11-16T04:19:45.818Z,17.83
2017-11-16T04:22:13.356Z,17.77
2017-11-16T04:24:40.874Z,13.63
2017-11-16T04:27:08.393Z,16.13
2017-11-16T04:29:35.928Z,18.13
2017-11-16T04:32:03.434Z,17.03
2017-11-16T04:34:31.009Z,17.00
2017-11-16T04:36:59.293Z,18.17
2017-11-16T04:39:27.563Z,19.87
2017-11-16T04:41:55.866Z,23.87
2017-11-16T04:44:23.378Z,14.83
2017-11-16T04:46:50.913Z,13.70
2017-11-16T04:49:18.465Z,19.30
2017-11-16T04:51:45.965Z,18.03
2017-11-16T04:54:13.506Z,18.47
2017-11-16T04:56:41.013Z,15.03
2017-11-16T04:59:09.285Z,21.33
2017-11-16T05:01:37.596Z,19.97
2017-11-16T05:04:05.110Z,16.93
2017-11-16T05:06:32.613Z,15.17
2017-11-16T05:09:00.149Z,17.03
2017-11-16T05:11:27.662Z,19.00
2017-11-16T05:13:55.177Z,20.47
2017-11-16T05:16:22.732Z,25.23
2017-11-16T05:18:50.482Z,19.63
2017-11-16T05:21:17.996Z,16.90
2017-11-16T05:23:45.535Z,20.50
2017-11-16T05:26:13.048Z,21.50
2017-11-16T05:28:40.603Z,13.90
2017-11-16T05:31:08.112Z,16.30
2017-11-16T05:33:35.827Z,16.53
2017-11-16T05:36:03.383Z,15.67
2017-11-16T05:38:30.894Z,19.00
2017-11-16T05:40:58.410Z,19.47
2017-11-16T05:43:25.960Z,22.47
2017-11-16T05:45:53.477Z,20.73
2017-11-16T05:48:21.004Z,19.83
2017-11-16T05:50:48.546Z,21.43
2017-11-16T05:53:16.056Z,15.33
2017-11-16T05:55:43.566Z,18.30
2017-11-16T05:58:11.154Z,22.67
2017-11-16T06:00:38.661Z,18.40
2017-11-16T06:03:06.208Z,21.13
2017-11-16T06:05:33.756Z,19.40
2017-11-16T06:08:02.035Z,22.57
2017-11-16T06:10:29.551Z,23.03
2017-11-16T06:12:57.126Z,19.33
2017-11-16T06:15:25.398Z,17.90
2017-11-16T06:17:52.945Z,19.03
2017-11-16T06:20:20.461Z,17.50
2017-11-16T06:22:47.973Z,17.87
2017-11-16T06:25:16.270Z,18.40
2017-11-16T06:27:43.839Z,20.80
2017-11-16T06:30:11.356Z,17.70
2017-11-16T06:32:38.919Z,21.00
2017-11-16T06:35:07.210Z,22.70
2017-11-16T06:37:34.724Z,19.37
2017-11-16T06:40:02.266Z,18.13
2017-11-16T06:42:29.778Z,23.87
2017-11-16T06:44:57.295Z,23.03
2017-11-16T06:47:24.843Z,19.83
2017-11-16T06:49:52.358Z,18.87
2017-11-16T06:52:19.875Z,16.80
2017-11-16T06:54:47.413Z,22.03
2017-11-16T06:57:14.916Z,20.70
2017-11-16T06:59:43.224Z,18.87
2017-11-16T07:02:10.737Z,19.20
2017-11-16T07:04:38.266Z,17.90
2017-11-16T07:07:05.777Z,19.40
2017-11-16T07:09:33.290Z,19.03
2017-11-16T07:12:00.819Z,19.97
2017-11-16T07:14:29.136Z,13.20
2017-11-16T07:16:56.652Z,22.70
2017-11-16T07:19:24.166Z,19.27
2017-11-16T07:21:51.709Z,16.63
2017-11-16T07:24:19.220Z,15.33
2017-11-16T07:26:46.750Z,17.07
2017-11-16T07:29:14.315Z,17.10
2017-11-16T07:31:41.830Z,20.60
2017-11-16T07:34:09.338Z,24.30
2017-11-16T07:36:36.878Z,21.50
2017-11-16T07:39:04.389Z,18.43
2017-11-16T07:41:32.663Z,20.67
2017-11-16T07:44:00.987Z,25.03
2017-11-16T07:46:28.518Z,19.07
2017-11-16T07:48:56.022Z,19.73
2017-11-16T07:51:23.575Z,18.50
2017-11-16T07:53:51.096Z,20.67
2017-11-16T07:56:18.637Z,23.13
2017-11-16T07:58:46.909Z,14.70
2017-11-16T08:01:14.413Z,16.07
2017-11-16T08:03:41.953Z,20.37
2017-11-16T08:06:09.479Z,27.20
2017-11-16T08:08:36.990Z,21.57
2017-11-16T08:11:04.538Z,17.67
2017-11-16T08:13:32.067Z,26.30
2017-11-16T08:15:59.590Z,23.13
2017-11-16T08:18:27.126Z,24.63
2017-11-16T08:20:54.641Z,23.83
2017-11-16T08:23:22.174Z,25.27
2017-11-16T08:25:49.691Z,24.13
2017-11-16T08:28:17.239Z,24.60
2017-11-16T08:30:45.548Z,18.97
2017-11-16T08:33:13.060Z,18.90
2017-11-16T08:35:41.330Z,18.40
2017-11-16T08:38:08.865Z,21.03
2017-11-16T08:43:10.207Z,22.60
2017-11-16T08:45:37.722Z,21.57
2017-11-16T08:48:05.232Z,25.37
2017-11-16T08:50:32.772Z,23.27
2017-11-16T08:53:00.284Z,22.37
2017-11-16T08:55:27.823Z,22.43
2017-11-16T08:57:55.354Z,18.70
2017-11-16T09:00:22.912Z,22.03
2017-11-16T09:02:51.198Z,17.07
2017-11-16T09:05:18.719Z,18.20
2017-11-16T09:07:46.266Z,20.17
2017-11-16T09:10:13.787Z,16.70
2017-11-16T09:12:41.298Z,22.13
2017-11-16T09:15:09.613Z,19.80
2017-11-16T09:17:37.126Z,18.43
2017-11-16T09:20:04.653Z,23.83
2017-11-16T09:22:32.195Z,23.20
2017-11-16T09:24:59.717Z,23.77
2017-11-16T09:27:27.230Z,22.40
2017-11-16T09:29:54.796Z,24.70
2017-11-16T09:32:22.317Z,22.27
2017-11-16T09:34:49.836Z,21.07
2017-11-16T09:37:17.374Z,21.80
2017-11-16T09:39:44.889Z,21.40
2017-11-16T09:42:13.197Z,22.57
2017-11-16T09:44:40.714Z,17.73
2017-11-16T09:47:09.005Z,35.03
2017-11-16T09:49:36.561Z,21.20
2017-11-16T09:52:04.086Z,20.50
2017-11-16T09:54:31.630Z,19.60
2017-11-16T09:56:59.195Z,16.60
2017-11-16T09:59:26.717Z,24.47
2017-11-16T10:01:54.238Z,25.77
2017-11-16T10:04:21.784Z,19.43
2017-11-16T10:06:49.313Z,16.90
2017-11-16T10:09:16.825Z,19.00
2017-11-16T10:11:44.374Z,15.37
2017-11-16T10:14:11.885Z,17.70
2017-11-16T10:16:39.399Z,15.93
2017-11-16T10:19:06.943Z,16.60
2017-11-16T10:21:34.470Z,17.83
2017-11-16T10:24:02.002Z,12.37
2017-11-16T10:26:29.570Z,17.10
2017-11-16T10:28:57.081Z,17.63
2017-11-16T10:31:24.589Z,14.00
2017-11-16T10:33:52.141Z,14.30
2017-11-16T10:36:19.652Z,14.80
2017-11-16T10:38:47.166Z,15.20
2017-11-16T10:41:14.716Z,15.10
2017-11-16T10:43:42.234Z,14.13
2017-11-16T10:46:09.751Z,14.23
2017-11-16T10:48:37.291Z,13.60
2017-11-16T10:51:04.811Z,13.80
2017-11-16T10:53:32.355Z,12.27
2017-11-16T10:55:59.863Z,15.60
2017-11-16T10:58:28.141Z,14.27
2017-11-16T11:00:56.466Z,10.60
2017-11-16T11:03:23.969Z,13.00
2017-11-16T11:05:51.494Z,11.53
2017-11-16T11:08:19.027Z,10.00
2017-11-16T11:10:46.533Z,9.57
2017-11-16T11:13:14.062Z,10.97
2017-11-16T11:15:41.614Z,13.90
2017-11-16T11:18:09.163Z,12.50
2017-11-16T11:20:36.675Z,13.00
2017-11-16T11:23:04.202Z,10.43
2017-11-16T11:25:31.747Z,11.70
2017-11-16T11:27:59.288Z,12.07
2017-11-16T11:30:27.585Z,11.07
2017-11-16T11:32:55.097Z,16.40
2017-11-16T11:35:22.639Z,11.87
2017-11-16T11:37:50.146Z,11.00
2017-11-16T11:40:18.522Z,11.40
2017-11-16T11:42:46.058Z,10.00
2017-11-16T11:45:13.599Z,11.00
2017-11-16T11:47:41.121Z,12.10
2017-11-16T11:50:08.652Z,12.17
2017-11-16T11:52:37.270Z,9.13
2017-11-16T11:55:04.821Z,11.80
2017-11-16T11:57:32.346Z,7.87
2017-11-16T11:59:59.844Z,9.80
2017-11-16T12:02:27.377Z,14.47
2017-11-16T12:04:55.650Z,9.70
2017-11-16T12:07:23.938Z,10.77
2017-11-16T12:09:52.237Z,11.57
2017-11-16T12:12:19.760Z,10.27
2017-11-16T12:14:47.281Z,12.93
2017-11-16T12:17:14.815Z,10.33
2017-11-16T12:19:42.330Z,10.83
2017-11-16T12:22:09.842Z,10.30
2017-11-16T12:24:37.386Z,10.03
2017-11-16T12:27:04.904Z,12.10
2017-11-16T12:29:32.428Z,11.63
2017-11-16T12:31:59.969Z,10.30
2017-11-16T12:34:27.486Z,11.27
2017-11-16T12:36:55.005Z,9.23
2017-11-16T12:39:22.564Z,11.87
2017-11-16T12:41:50.073Z,12.73
2017-11-16T12:44:17.613Z,13.10
2017-11-16T12:46:45.131Z,14.40
2017-11-16T12:49:12.658Z,8.83
2017-11-16T12:51:40.968Z,11.03
2017-11-16T12:54:09.237Z,13.87
2017-11-16T12:56:36.749Z,10.77
2017-11-16T12:59:04.299Z,10.27
2017-11-16T13:01:31.827Z,9.47
2017-11-16T13:03:59.336Z,12.77
2017-11-16T13:06:26.864Z,10.27
2017-11-16T13:08:54.393Z,9.00
2017-11-16T13:11:21.924Z,11.93
2017-11-16T13:13:49.429Z,13.13
2017-11-16T13:16:16.955Z,11.60
2017-11-16T13:18:45.227Z,10.87
2017-11-16T13:21:13.526Z,9.80
2017-11-16T13:23:41.049Z,12.47
2017-11-16T13:26:08.557Z,12.40
2017-11-16T13:28:36.085Z,8.43
2017-11-16T13:31:04.359Z,10.30
2017-11-16T13:33:32.622Z,9.60
2017-11-16T13:36:00.149Z,11.27
2017-11-16T13:38:27.660Z,12.77
2017-11-16T13:40:55.163Z,11.90
2017-11-16T13:43:22.705Z,12.37
2017-11-16T13:45:50.213Z,9.50
2017-11-16T13:48:17.730Z,12.00
2017-11-16T13:50:45.270Z,12.97
2017-11-16T13:53:12.777Z,11.07
2017-11-16T13:55:40.305Z,9.87
2017-11-16T13:58:07.854Z,12.97
2017-11-16T14:00:35.357Z,9.23
2017-11-16T14:03:02.858Z,11.57
2017-11-16T14:05:30.401Z,10.13
2017-11-16T14:07:57.918Z,10.30
2017-11-16T14:10:25.467Z,10.27
2017-11-16T14:12:52.974Z,12.20
2017-11-16T14:15:20.489Z,11.57
2017-11-16T14:17:48.025Z,11.87
2017-11-16T14:20:15.538Z,10.90
2017-11-16T14:22:43.049Z,9.33
2017-11-16T14:25:10.589Z,14.70
2017-11-16T14:27:38.106Z,13.07
2017-11-16T14:30:05.609Z,11.77
2017-11-16T14:32:33.929Z,17.73
2017-11-16T14:35:01.437Z,20.30
2017-11-16T14:37:28.981Z,17.90
2017-11-16T14:39:56.526Z,20.70
2017-11-16T14:42:24.030Z,18.40
2017-11-16T14:44:52.337Z,20.30
2017-11-16T14:47:19.843Z,20.23
2017-11-16T14:49:47.506Z,18.00
2017-11-16T14:52:15.041Z,15.20
2017-11-16T14:54:42.551Z,14.20
2017-11-16T14:57:10.054Z,15.23
2017-11-16T14:59:37.599Z,22.20
2017-11-16T15:02:05.125Z,23.53
2017-11-16T15:04:32.641Z,18.70
2017-11-16T15:07:00.182Z,15.70
2017-11-16T15:09:27.690Z,18.13
2017-11-16T15:11:55.211Z,17.20
2017-11-16T15:14:22.753Z,24.83
2017-11-16T15:16:50.265Z,21.03
2017-11-16T15:19:17.805Z,19.07
2017-11-16T15:21:45.333Z,20.73
2017-11-16T15:24:12.882Z,18.67
2017-11-16T15:26:40.426Z,21.70
2017-11-16T15:29:08.693Z,23.57
2017-11-16T15:31:36.958Z,22.97
2017-11-16T15:34:04.607Z,24.23
2017-11-16T15:36:32.109Z,25.63
2017-11-16T15:38:59.639Z,20.63
2017-11-16T15:41:27.246Z,22.10
2017-11-16T15:43:54.837Z,20.00
2017-11-16T15:46:22.372Z,20.87
2017-11-16T15:48:50.011Z,22.30
2017-11-16T15:51:17.526Z,20.37
2017-11-16T15:53:45.078Z,25.70
2017-11-16T15:56:12.640Z,19.93
2017-11-16T15:58:40.230Z,25.47
2017-11-16T16:01:07.834Z,18.73
2017-11-16T16:03:35.428Z,21.90
2017-11-16T16:06:02.956Z,20.17
2017-11-16T16:08:30.516Z,16.43
2017-11-16T16:10:58.093Z,22.97
2017-11-16T16:13:25.683Z,20.33
2017-11-16T16:15:53.222Z,21.40
2017-11-16T16:18:20.789Z,22.13
2017-11-16T16:20:48.293Z,23.20
2017-11-16T16:23:15.830Z,19.53
2017-11-16T16:25:44.133Z,21.30
2017-11-16T16:28:11.692Z,20.47
2017-11-16T16:30:39.266Z,18.00
2017-11-16T16:33:06.873Z,21.10
2017-11-16T16:35:34.468Z,23.87
2017-11-16T16:38:02.059Z,22.50
2017-11-16T16:40:29.742Z,22.27
2017-11-16T16:42:57.317Z,24.70
2017-11-16T16:45:24.899Z,26.77
2017-11-16T16:47:53.360Z,25.73
2017-11-16T16:50:20.978Z,23.50
2017-11-16T16:52:48.603Z,21.70
2017-11-16T16:55:16.184Z,23.03
2017-11-16T16:57:43.803Z,18.97
2017-11-16T17:00:12.202Z,20.33
2017-11-16T17:02:39.817Z,21.37
2017-11-16T17:05:07.391Z,15.93
2017-11-16T17:07:35.015Z,16.50
2017-11-16T17:10:02.671Z,17.33
2017-11-16T17:12:30.378Z,16.20
2017-11-16T17:14:57.952Z,19.20
2017-11-16T17:17:25.562Z,18.70
2017-11-16T17:19:53.219Z,20.40
2017-11-16T17:22:20.856Z,21.20
2017-11-16T17:24:48.449Z,15.40
2017-11-16T17:27:16.056Z,18.10
2017-11-16T17:29:43.640Z,19.90
2017-11-16T17:32:11.202Z,16.47
2017-11-16T17:34:38.819Z,20.53
2017-11-16T17:37:06.382Z,17.97
2017-11-16T17:39:33.961Z,15.07
2017-11-16T17:42:01.578Z,19.53
2017-11-16T17:44:29.161Z,17.07
2017-11-16T17:46:57.566Z,21.03
2017-11-16T17:49:25.179Z,19.03
2017-11-16T17:51:52.758Z,23.03
2017-11-16T17:54:20.334Z,16.40
2017-11-16T17:56:47.940Z,18.77
2017-11-16T17:59:16.284Z,17.10
2017-11-16T18:01:43.841Z,17.40
2017-11-16T18:04:11.466Z,18.30
2017-11-16T18:06:39.023Z,17.53
2017-11-16T18:09:06.622Z,19.17
2017-11-16T18:11:34.180Z,17.30
2017-11-16T18:14:01.750Z,17.00
2017-11-16T18:16:29.333Z,25.17
2017-11-16T18:18:56.922Z,24.63
2017-11-16T18:21:25.185Z,21.97
2017-11-16T18:23:53.555Z,24.27
2017-11-16T18:26:21.129Z,25.33
2017-11-16T18:28:49.505Z,20.33
2017-11-16T18:31:17.083Z,21.53
2017-11-16T18:33:44.665Z,20.80
2017-11-16T18:36:12.361Z,25.40
2017-11-16T18:38:39.946Z,25.70
2017-11-16T18:41:08.294Z,31.77
2017-11-16T18:43:36.437Z,26.53
2017-11-16T18:46:04.099Z,29.60
2017-11-16T18:48:31.700Z,20.67
2017-11-16T18:50:59.311Z,20.90
2017-11-16T18:53:27.035Z,27.53
2017-11-16T18:55:54.614Z,27.23
2017-11-16T18:58:22.987Z,21.60
2017-11-16T19:00:52.158Z,23.70
2017-11-16T19:03:19.777Z,23.00
2017-11-16T19:05:47.386Z,24.23
2017-11-16T19:08:14.960Z,26.57
2017-11-16T19:10:42.614Z,28.17
2017-11-16T19:13:10.999Z,25.67
2017-11-16T19:15:38.576Z,31.73
2017-11-16T19:18:06.956Z,25.63
2017-11-16T19:20:35.319Z,29.17
2017-11-16T19:23:02.901Z,28.40
2017-11-16T19:25:31.266Z,27.30
2017-11-16T19:27:58.891Z,28.00
2017-11-16T19:30:26.700Z,25.67
2017-11-16T19:32:55.378Z,27.27
2017-11-16T19:35:23.353Z,30.03
2017-11-16T19:37:51.178Z,22.60
2017-11-16T19:40:18.817Z,26.10
2017-11-16T19:42:46.496Z,35.10
2017-11-16T19:45:14.165Z,25.67
2017-11-16T19:47:42.169Z,25.40
2017-11-16T19:50:11.250Z,21.83
2017-11-16T19:52:39.800Z,27.90
2017-11-16T19:55:08.345Z,21.57
2017-11-16T19:57:36.883Z,26.93
2017-11-16T20:00:05.145Z,27.20
2017-11-16T20:02:33.284Z,25.07
2017-11-16T20:05:01.625Z,22.33
2017-11-16T20:07:31.178Z,20.20
2017-11-16T20:09:59.848Z,25.30
2017-11-16T20:12:28.293Z,21.53
2017-11-16T20:14:56.903Z,20.57
2017-11-16T20:17:26.580Z,22.70
2017-11-16T20:19:56.165Z,21.07
2017-11-16T20:22:25.317Z,17.50
2017-11-16T20:24:53.986Z,16.43
2017-11-16T20:27:22.329Z,19.47
2017-11-16T20:29:51.138Z,21.17
2017-11-16T20:32:19.243Z,14.73
2017-11-16T20:34:48.367Z,13.80
2017-11-16T20:37:33.369Z,14.97
2017-11-16T20:53:53.715Z,12.33
2017-11-16T20:56:21.688Z,17.57
2017-11-16T20:58:50.057Z,14.93
2017-11-16T21:01:18.187Z,12.97
2017-11-16T21:03:46.155Z,14.10
2017-11-16T21:06:14.022Z,12.57
2017-11-16T21:08:42.449Z,15.00
2017-11-16T21:11:10.078Z,13.87
2017-11-16T21:13:38.858Z,13.30
2017-11-16T21:16:06.922Z,11.77
2017-11-16T21:18:34.803Z,11.37
2017-11-16T21:21:02.479Z,12.80
2017-11-16T21:23:30.084Z,13.07
2017-11-16T21:25:57.976Z,12.03
2017-11-16T21:28:25.777Z,14.40
2017-11-16T21:30:53.411Z,15.40
2017-11-16T21:33:21.371Z,17.80
2017-11-16T21:35:49.031Z,14.47
2017-11-16T21:38:16.591Z,17.50
2017-11-16T21:40:44.616Z,15.50
2017-11-16T21:43:13.338Z,13.87
2017-11-16T21:45:41.754Z,16.43
2017-11-16T21:48:09.428Z,13.20
2017-11-16T21:50:38.005Z,13.67
2017-11-16T21:53:05.663Z,14.07
2017-11-16T21:55:33.735Z,15.00
2017-11-16T21:58:01.349Z,15.00
2017-11-16T22:00:29.775Z,13.60
2017-11-16T22:02:57.646Z,14.93
2017-11-16T22:05:25.221Z,17.37
2017-11-16T22:07:52.768Z,17.07
2017-11-16T22:10:20.376Z,16.47
2017-11-16T22:12:47.933Z,13.60
2017-11-16T22:15:15.499Z,17.10
2017-11-16T22:17:43.871Z,18.00
2017-11-16T22:20:11.502Z,16.77
2017-11-16T22:22:39.120Z,17.53
2017-11-16T22:25:06.705Z,18.90
2017-11-16T22:27:34.292Z,18.53
2017-11-16T22:30:01.881Z,17.80
2017-11-16T22:32:29.487Z,18.33
2017-11-16T22:34:57.048Z,16.43
2017-11-16T22:37:24.649Z,15.10
2017-11-16T22:39:52.279Z,15.50
2017-11-16T22:42:19.871Z,24.37
2017-11-16T22:44:47.465Z,18.07
2017-11-16T22:47:15.051Z,20.60
2017-11-16T22:49:42.629Z,18.80
2017-11-16T22:52:10.236Z,17.93
2017-11-16T22:54:38.570Z,18.53
2017-11-16T22:57:06.162Z,22.70
2017-11-16T22:59:33.759Z,22.80
2017-11-16T23:02:01.343Z,16.07
2017-11-16T23:04:28.930Z,22.67
2017-11-16T23:06:56.516Z,17.60
2017-11-16T23:09:24.099Z,18.30
2017-11-16T23:11:51.691Z,15.60
2017-11-16T23:14:19.279Z,15.67
2017-11-16T23:16:46.863Z,18.87
2017-11-16T23:19:14.454Z,17.77
2017-11-16T23:21:42.062Z,18.67
2017-11-16T23:24:09.625Z,15.30
2017-11-16T23:26:37.185Z,18.80
2017-11-16T23:29:04.788Z,18.10
2017-11-16T23:31:32.347Z,21.53
2017-11-16T23:33:59.926Z,15.23
2017-11-16T23:36:27.515Z,19.73
2017-11-16T23:38:55.064Z,15.53
2017-11-16T23:41:22.631Z,19.77
2017-11-16T23:43:50.244Z,19.20
2017-11-16T23:46:17.851Z,19.17
2017-11-16T23:48:45.446Z,15.40
2017-11-16T23:51:13.809Z,19.70
2017-11-16T23:53:41.382Z,26.87
2017-11-16T23:56:09.755Z,21.10
2017-11-16T23:58:37.304Z,22.03
